createdAt,value
2022-12-04T00:02:38.080Z,0.50
2022-12-04T00:07:05.684Z,0.40
2022-12-04T00:12:10.677Z,0.40
2022-12-04T00:16:34.531Z,0.40
2022-12-04T00:25:30.596Z,0.40
2022-12-04T00:29:32.515Z,0.40
2022-12-04T00:33:35.269Z,0.40
2022-12-04T00:37:37.441Z,0.50
2022-12-04T00:41:47.840Z,0.50
2022-12-04T00:45:50.637Z,0.40
2022-12-04T00:49:52.751Z,0.50
2022-12-04T00:54:07.187Z,0.50
2022-12-04T00:58:09.987Z,0.50
2022-12-04T01:02:12.220Z,0.50
2022-12-04T01:06:24.578Z,0.50
2022-12-04T01:10:45.058Z,0.50
2022-12-04T01:14:47.146Z,0.60
2022-12-04T01:18:49.517Z,0.50
2022-12-04T01:23:21.051Z,0.60
2022-12-04T01:27:23.127Z,0.50
2022-12-04T01:31:25.393Z,0.60
2022-12-04T01:35:27.568Z,0.60
2022-12-04T01:39:29.595Z,0.60
2022-12-04T01:44:06.961Z,0.60
2022-12-04T01:48:31.043Z,0.70
2022-12-04T01:52:33.542Z,0.60
2022-12-04T01:56:45.566Z,0.60
2022-12-04T02:00:55.734Z,0.60
2022-12-04T02:05:12.383Z,0.70
2022-12-04T02:09:14.792Z,0.70
2022-12-04T02:14:21.510Z,0.60
2022-12-04T02:19:00.929Z,0.70
2022-12-04T02:23:14.143Z,0.70
2022-12-04T02:28:11.648Z,0.70
2022-12-04T02:32:43.904Z,0.70
2022-12-04T02:36:57.937Z,0.70
2022-12-04T02:41:15.901Z,0.70
2022-12-04T02:45:21.902Z,0.70
2022-12-04T02:49:59.266Z,0.70
2022-12-04T02:54:46.642Z,0.80
2022-12-04T02:58:59.460Z,0.70
2022-12-04T03:03:51.636Z,0.70
2022-12-04T03:08:01.000Z,0.80
2022-12-04T03:12:41.813Z,0.80
2022-12-04T03:17:02.697Z,0.80
2022-12-04T03:22:07.496Z,0.80
2022-12-04T03:26:32.960Z,0.80
2022-12-04T03:30:59.720Z,0.80
2022-12-04T03:35:12.360Z,0.80
2022-12-04T03:39:52.413Z,0.80
2022-12-04T03:44:35.790Z,0.80
2022-12-04T03:49:07.863Z,0.80
2022-12-04T03:54:13.369Z,0.90
2022-12-04T03:58:21.421Z,0.80
2022-12-04T04:02:28.617Z,0.80
2022-12-04T04:06:39.248Z,0.90
2022-12-04T04:10:44.239Z,0.80
2022-12-04T04:15:14.616Z,0.90
2022-12-04T04:19:42.672Z,0.80
2022-12-04T04:24:07.703Z,0.80
2022-12-04T04:28:28.561Z,0.80
2022-12-04T04:33:00.847Z,0.90
2022-12-04T04:37:14.280Z,0.80
2022-12-04T04:41:54.745Z,0.90
2022-12-04T04:46:47.653Z,0.80
2022-12-04T04:51:16.166Z,0.80
2022-12-04T04:55:19.595Z,0.90
2022-12-04T04:59:21.472Z,0.90
2022-12-04T05:03:37.532Z,0.90
2022-12-04T05:08:07.798Z,0.90
2022-12-04T05:12:10.308Z,0.90
2022-12-04T05:16:14.631Z,0.90
2022-12-04T05:20:16.773Z,0.90
2022-12-04T05:24:18.637Z,0.90
2022-12-04T05:28:20.451Z,0.90
2022-12-04T05:32:24.530Z,0.90
2022-12-04T05:36:26.491Z,1.00
2022-12-04T05:40:54.638Z,0.90
2022-12-04T05:45:13.104Z,0.90
2022-12-04T05:49:19.931Z,0.90
2022-12-04T05:53:54.989Z,1.10
2022-12-04T05:58:47.682Z,0.90
2022-12-04T06:02:52.052Z,0.90
2022-12-04T06:06:55.242Z,0.90
2022-12-04T06:10:57.144Z,0.90
2022-12-04T06:15:00.135Z,0.90
2022-12-04T06:19:12.689Z,0.90
2022-12-04T06:24:17.566Z,0.90
2022-12-04T06:28:19.777Z,0.90
2022-12-04T06:32:25.080Z,0.90
2022-12-04T06:36:26.948Z,0.90
2022-12-04T06:40:28.933Z,0.90
2022-12-04T06:44:30.864Z,0.90
2022-12-04T06:49:03.171Z,0.80
2022-12-04T06:53:08.473Z,0.90
2022-12-04T06:57:10.957Z,0.80
2022-12-04T07:01:22.093Z,0.90
2022-12-04T07:05:25.199Z,0.90
2022-12-04T07:09:27.131Z,0.90
2022-12-04T07:13:29.023Z,0.80
2022-12-04T07:17:30.933Z,0.80
2022-12-04T07:21:34.624Z,0.80
2022-12-04T07:25:40.838Z,0.80
2022-12-04T07:30:47.618Z,0.90
2022-12-04T07:34:52.813Z,0.80
2022-12-04T07:38:56.134Z,0.90
2022-12-04T07:43:21.862Z,0.80
2022-12-04T07:47:48.745Z,0.90
2022-12-04T07:51:52.784Z,0.90
2022-12-04T07:55:54.676Z,1.00
2022-12-04T07:59:56.860Z,0.90
2022-12-04T08:04:00.500Z,0.90
2022-12-04T08:08:02.571Z,0.90
2022-12-04T08:12:35.708Z,0.90
2022-12-04T08:16:38.109Z,1.00
2022-12-04T08:20:41.415Z,0.90
2022-12-04T08:24:49.627Z,0.90
2022-12-04T08:29:16.800Z,0.80
2022-12-04T08:33:34.688Z,0.80
2022-12-04T08:37:41.262Z,1.00
2022-12-04T08:41:43.467Z,0.90
2022-12-04T08:46:13.038Z,0.90
2022-12-04T08:50:15.583Z,1.00
2022-12-04T08:54:17.564Z,0.90
2022-12-04T08:58:20.193Z,1.10
2022-12-04T09:02:22.317Z,0.90
2022-12-04T09:06:33.577Z,1.00
2022-12-04T09:11:10.605Z,0.90
2022-12-04T09:15:13.647Z,1.00
2022-12-04T09:19:15.679Z,1.00
2022-12-04T09:23:17.995Z,0.90
2022-12-04T09:27:19.916Z,0.80
2022-12-04T09:31:23.487Z,0.80
2022-12-04T09:35:25.715Z,0.90
2022-12-04T09:39:27.598Z,0.80
2022-12-04T09:44:25.440Z,0.80
2022-12-04T09:48:33.723Z,0.90
2022-12-04T09:53:01.831Z,0.90
2022-12-04T09:57:43.098Z,1.00
2022-12-04T10:02:16.056Z,0.90
2022-12-04T10:06:26.569Z,0.90
2022-12-04T10:11:09.266Z,0.90
2022-12-04T10:15:50.801Z,0.90
2022-12-04T10:20:26.340Z,0.90
2022-12-04T10:24:34.156Z,0.80
2022-12-04T10:28:55.170Z,0.90
2022-12-04T10:33:19.681Z,0.80
2022-12-04T10:37:23.024Z,0.80
2022-12-04T10:41:29.885Z,0.80
2022-12-04T10:45:32.025Z,0.80
2022-12-04T10:50:02.167Z,0.90
2022-12-04T10:54:22.020Z,0.70
2022-12-04T10:58:28.196Z,0.70
2022-12-04T11:02:39.135Z,0.70
2022-12-04T11:06:41.489Z,0.70
2022-12-04T11:11:06.854Z,0.60
2022-12-04T11:15:35.841Z,0.70
2022-12-04T11:19:59.775Z,0.70
2022-12-04T11:24:30.472Z,0.80
2022-12-04T11:28:41.494Z,0.60
2022-12-04T11:32:49.175Z,0.60
2022-12-04T11:36:56.478Z,0.60
2022-12-04T11:40:59.417Z,0.60
2022-12-04T11:45:19.778Z,0.60
2022-12-04T11:49:26.999Z,0.60
2022-12-04T11:54:09.609Z,0.60
2022-12-04T11:58:54.724Z,0.50
2022-12-04T12:02:56.779Z,0.60
2022-12-04T12:07:21.898Z,0.60
2022-12-04T12:11:50.884Z,0.50
2022-12-04T12:16:18.336Z,0.40
2022-12-04T12:20:59.534Z,0.40
2022-12-04T12:25:33.249Z,0.40
2022-12-04T12:29:57.346Z,0.30
2022-12-04T12:34:09.101Z,0.20
2022-12-04T12:38:20.528Z,0.20
2022-12-04T12:43:32.370Z,0.30
2022-12-04T12:48:09.225Z,0.20
2022-12-04T12:52:42.324Z,0.20
2022-12-04T12:56:50.264Z,0.10
2022-12-04T13:01:11.518Z,0.20
2022-12-04T13:05:22.235Z,0.10
2022-12-04T13:09:35.258Z,0.10
2022-12-04T13:13:45.114Z,0.20
2022-12-04T13:17:53.234Z,0.10
2022-12-04T13:22:20.571Z,0.10
2022-12-04T13:27:00.162Z,0.10
2022-12-04T13:42:51.437Z,-0.10
2022-12-04T13:47:26.623Z,-0.20
2022-12-04T13:51:41.167Z,-0.10
2022-12-04T13:55:43.338Z,-0.10
2022-12-04T14:00:26.279Z,0.00
2022-12-04T14:04:48.421Z,-0.10
2022-12-04T14:09:00.089Z,-0.10
2022-12-04T14:13:25.055Z,-0.30
2022-12-04T14:18:05.965Z,-0.30
2022-12-04T14:22:43.309Z,-0.20
2022-12-04T14:31:28.147Z,-0.20
2022-12-04T14:35:34.061Z,-0.30
2022-12-04T14:39:50.338Z,-0.30
2022-12-04T14:44:23.809Z,-0.30
2022-12-04T14:48:53.125Z,-0.20
2022-12-04T14:53:00.137Z,-0.30
2022-12-04T14:57:35.975Z,-0.30
2022-12-04T15:01:38.527Z,-0.20
2022-12-04T15:06:31.394Z,-0.30
2022-12-04T15:11:18.202Z,-0.30
2022-12-04T15:16:25.563Z,-0.40
2022-12-04T15:20:43.792Z,-0.40
2022-12-04T15:24:45.814Z,-0.40
2022-12-04T15:29:09.355Z,-0.40
2022-12-04T15:33:21.962Z,-0.40
2022-12-04T15:37:27.681Z,-0.40
2022-12-04T15:42:05.902Z,-0.30
2022-12-04T15:47:14.434Z,-0.30
2022-12-04T15:51:19.682Z,-0.30
2022-12-04T15:55:23.804Z,-0.40
2022-12-04T15:59:28.575Z,-0.30
2022-12-04T16:03:45.746Z,-0.40
2022-12-04T16:07:53.683Z,-0.30
2022-12-04T16:12:17.838Z,-0.20
2022-12-04T16:16:25.320Z,-0.30
2022-12-04T16:20:55.708Z,-0.30
2022-12-04T16:25:13.634Z,-0.20
2022-12-04T16:29:15.691Z,-0.30
2022-12-04T16:33:41.599Z,-0.30
2022-12-04T16:37:43.814Z,-0.20
2022-12-04T16:41:45.839Z,-0.20
2022-12-04T16:45:55.293Z,-0.30
2022-12-04T16:50:16.326Z,-0.30
2022-12-04T16:54:18.481Z,-0.30
2022-12-04T16:58:20.907Z,-0.30
2022-12-04T17:02:48.714Z,-0.40
2022-12-04T17:06:53.256Z,-0.40
2022-12-04T17:10:56.417Z,-0.30
2022-12-04T17:15:05.192Z,-0.40
2022-12-04T17:19:58.344Z,-0.30
2022-12-04T17:24:55.907Z,-0.40
2022-12-04T17:28:58.420Z,-0.40
2022-12-04T17:33:04.545Z,-0.40
2022-12-04T17:38:04.045Z,-0.40
2022-12-04T17:42:33.765Z,-0.40
2022-12-04T17:46:35.932Z,-0.30
2022-12-04T17:50:38.030Z,-0.40
2022-12-04T17:54:40.058Z,-0.40
2022-12-04T17:58:42.127Z,-0.30
2022-12-04T18:02:47.500Z,-0.40
2022-12-04T18:06:55.495Z,-0.40
2022-12-04T18:10:57.702Z,-0.20
2022-12-04T18:15:25.706Z,-0.30
2022-12-04T18:19:32.118Z,-0.40
2022-12-04T18:23:45.968Z,-0.40
2022-12-04T18:27:48.209Z,-0.40
2022-12-04T18:31:51.256Z,-0.40
2022-12-04T18:35:57.776Z,-0.40
2022-12-04T18:40:06.018Z,-0.40
2022-12-04T18:44:11.583Z,-0.40
2022-12-04T18:48:15.585Z,-0.40
2022-12-04T18:52:18.916Z,-0.40
2022-12-04T18:56:35.415Z,-0.40
2022-12-04T19:00:40.813Z,-0.30
2022-12-04T19:05:03.405Z,-0.40
2022-12-04T19:10:11.801Z,-0.40
2022-12-04T19:14:40.624Z,-0.30
2022-12-04T19:18:48.011Z,-0.30
2022-12-04T19:23:15.437Z,-0.40
2022-12-04T19:27:49.547Z,-0.30
2022-12-04T19:31:59.091Z,-0.30
2022-12-04T19:36:46.119Z,-0.30
2022-12-04T19:41:20.112Z,-0.30
2022-12-04T19:45:22.167Z,-0.30
2022-12-04T19:49:24.260Z,-0.20
2022-12-04T19:53:26.261Z,-0.30
2022-12-04T19:57:28.408Z,-0.20
2022-12-04T20:01:32.473Z,-0.20
2022-12-04T20:05:38.110Z,-0.20
2022-12-04T20:09:40.450Z,-0.20
2022-12-04T20:14:11.519Z,-0.10
2022-12-04T20:18:38.388Z,-0.20
2022-12-04T20:22:44.785Z,-0.10
2022-12-04T20:26:53.051Z,-0.10
2022-12-04T20:30:59.077Z,-0.10
2022-12-04T20:35:07.929Z,-0.10
2022-12-04T20:40:02.660Z,-0.10
2022-12-04T20:45:12.850Z,0.00
2022-12-04T20:49:22.466Z,0.00
2022-12-04T20:53:33.265Z,0.00
2022-12-04T20:58:04.668Z,0.00
2022-12-04T21:02:34.974Z,0.00
2022-12-04T21:06:41.782Z,0.00
2022-12-04T21:11:11.835Z,0.00
2022-12-04T21:15:33.522Z,0.10
2022-12-04T21:19:35.809Z,0.00
2022-12-04T21:24:28.784Z,0.00
2022-12-04T21:28:58.472Z,0.10
2022-12-04T21:33:00.467Z,0.10
2022-12-04T21:37:02.796Z,0.10
2022-12-04T21:41:31.881Z,0.10
2022-12-04T21:45:34.021Z,0.10
2022-12-04T21:49:36.055Z,0.10
2022-12-04T21:53:42.390Z,0.20
2022-12-04T21:57:44.751Z,0.10
2022-12-04T22:02:14.329Z,0.30
2022-12-04T22:06:20.466Z,0.10
2022-12-04T22:10:22.509Z,0.10
2022-12-04T22:14:26.857Z,0.10
2022-12-04T22:18:29.061Z,0.30
2022-12-04T22:22:35.156Z,0.30
2022-12-04T22:27:02.442Z,0.20
2022-12-04T22:31:08.190Z,0.20
2022-12-04T22:35:10.423Z,0.30
2022-12-04T22:39:12.467Z,0.30
2022-12-04T22:43:14.928Z,0.20
2022-12-04T22:47:19.180Z,0.30
2022-12-04T22:52:17.666Z,0.20
2022-12-04T22:56:49.707Z,0.30
2022-12-04T23:01:00.974Z,0.30
2022-12-04T23:05:04.662Z,0.30
2022-12-04T23:09:11.535Z,0.30
2022-12-04T23:13:13.936Z,0.20
2022-12-04T23:17:34.457Z,0.20
2022-12-04T23:21:36.880Z,0.30
2022-12-04T23:26:41.229Z,0.20
2022-12-04T23:31:03.983Z,0.40
2022-12-04T23:35:06.900Z,0.40
2022-12-04T23:39:10.947Z,0.30
2022-12-04T23:43:13.150Z,0.30
2022-12-04T23:47:15.235Z,0.30
2022-12-04T23:51:19.776Z,0.50
2022-12-04T23:55:41.036Z,0.30
